createdAt,value
2019-05-19T00:01:36.931Z,95588.69
2019-05-19T00:04:03.010Z,95589.50
2019-05-19T00:06:29.003Z,95586.71
2019-05-19T00:08:55.026Z,95580.86
2019-05-19T00:11:21.004Z,95581.27
2019-05-19T00:13:46.865Z,95580.53
2019-05-19T00:16:12.720Z,95585.27
2019-05-19T00:18:38.565Z,95578.65
2019-05-19T00:21:04.525Z,95572.04
2019-05-19T00:23:30.551Z,95578.16
2019-05-19T00:25:56.425Z,95573.83
2019-05-19T00:28:22.288Z,95577.34
2019-05-19T00:30:48.224Z,95574.84
2019-05-19T00:33:14.094Z,95576.66
2019-05-19T00:35:39.913Z,95566.09
2019-05-19T00:38:05.855Z,95564.30
2019-05-19T00:40:31.745Z,95561.75
2019-05-19T00:42:57.707Z,95562.77
2019-05-19T00:45:23.560Z,95560.01
2019-05-19T00:47:49.542Z,95559.94
2019-05-19T00:50:15.600Z,95555.22
2019-05-19T00:52:41.434Z,95565.98
2019-05-19T00:55:07.566Z,95559.55
2019-05-19T00:57:34.917Z,95561.12
2019-05-19T01:00:00.765Z,95558.84
2019-05-19T01:02:26.726Z,95564.13
2019-05-19T01:04:52.587Z,95555.22
2019-05-19T01:07:18.534Z,95562.12
2019-05-19T01:09:44.441Z,95560.91
2019-05-19T01:12:10.397Z,95562.45
2019-05-19T01:14:36.223Z,95556.95
2019-05-19T01:17:02.507Z,95560.09
2019-05-19T01:19:28.480Z,95562.20
2019-05-19T01:21:54.521Z,95560.63
2019-05-19T01:24:20.485Z,95563.48
2019-05-19T01:26:46.306Z,95558.43
2019-05-19T01:29:12.342Z,95553.80
2019-05-19T01:31:38.397Z,95557.30
2019-05-19T01:34:04.368Z,95558.09
2019-05-19T01:36:30.316Z,95556.54
2019-05-19T01:38:56.277Z,95558.77
2019-05-19T01:41:22.155Z,95556.19
2019-05-19T01:43:48.108Z,95552.02
2019-05-19T01:46:14.053Z,95552.91
2019-05-19T01:48:40.012Z,95554.80
2019-05-19T01:51:05.846Z,95541.52
2019-05-19T01:53:31.805Z,95558.13
2019-05-19T01:55:57.639Z,95553.77
2019-05-19T01:58:23.600Z,95558.56
2019-05-19T02:00:49.523Z,95552.00
2019-05-19T02:03:15.468Z,95558.85
2019-05-19T02:05:41.306Z,95561.47
2019-05-19T02:08:07.152Z,95564.77
2019-05-19T02:10:33.110Z,95563.75
2019-05-19T02:12:58.956Z,95562.05
2019-05-19T02:15:25.004Z,95565.28
2019-05-19T02:17:51.142Z,95561.14
2019-05-19T02:20:30.572Z,95554.47
2019-05-19T02:22:45.266Z,95558.47
2019-05-19T02:25:11.529Z,95554.32
2019-05-19T02:27:37.469Z,95561.62
2019-05-19T02:30:05.544Z,95564.29
2019-05-19T02:32:31.371Z,95557.67
2019-05-19T02:34:57.245Z,95558.37
2019-05-19T02:37:23.097Z,95562.50
2019-05-19T02:39:49.049Z,95557.14
2019-05-19T02:42:14.996Z,95567.08
2019-05-19T02:44:41.429Z,95566.00
2019-05-19T02:47:08.098Z,95563.22
2019-05-19T02:49:34.093Z,95554.19
2019-05-19T02:52:01.947Z,95557.38
2019-05-19T02:54:28.625Z,95560.58
2019-05-19T02:56:54.667Z,95559.77
2019-05-19T02:59:21.422Z,95565.13
2019-05-19T03:02:01.241Z,95565.27
2019-05-19T03:04:27.124Z,95557.75
2019-05-19T03:06:52.964Z,95564.16
2019-05-19T03:09:18.900Z,95565.27
2019-05-19T03:11:44.852Z,95563.39
2019-05-19T03:14:10.662Z,95564.13
2019-05-19T03:16:36.538Z,95566.02
2019-05-19T03:19:02.489Z,95574.63
2019-05-19T03:21:28.329Z,95574.28
2019-05-19T03:23:54.263Z,95579.41
2019-05-19T03:26:20.226Z,95589.72
2019-05-19T03:28:46.060Z,95594.09
2019-05-19T03:31:16.788Z,95588.27
2019-05-19T03:33:44.555Z,95582.97
2019-05-19T03:36:10.394Z,95588.25
2019-05-19T03:38:36.241Z,95588.69
2019-05-19T03:41:02.177Z,95591.09
2019-05-19T03:43:28.017Z,95590.55
2019-05-19T03:45:53.971Z,95595.81
2019-05-19T03:48:19.810Z,95586.30
2019-05-19T03:50:45.679Z,95590.02
2019-05-19T03:53:11.526Z,95592.52
2019-05-19T03:55:37.394Z,95586.39
2019-05-19T03:58:03.352Z,95588.31
2019-05-19T04:00:29.188Z,95586.70
2019-05-19T04:02:55.031Z,95585.71
2019-05-19T04:05:20.932Z,95580.67
2019-05-19T04:07:46.742Z,95588.82
2019-05-19T04:10:12.879Z,95590.06
2019-05-19T04:12:38.759Z,95585.73
2019-05-19T04:15:04.860Z,95587.82
2019-05-19T04:17:30.844Z,95590.63
2019-05-19T04:19:56.701Z,95590.63
2019-05-19T04:22:22.530Z,95590.69
2019-05-19T04:24:48.337Z,95587.43
2019-05-19T04:27:14.188Z,95589.44
2019-05-19T04:29:40.136Z,95589.17
2019-05-19T04:32:06.095Z,95591.78
2019-05-19T04:34:31.932Z,95591.09
2019-05-19T04:36:57.778Z,95592.80
2019-05-19T04:39:23.617Z,95596.48
2019-05-19T04:41:49.562Z,95596.74
2019-05-19T04:44:15.394Z,95592.00
2019-05-19T04:46:41.259Z,95590.73
2019-05-19T04:49:07.109Z,95588.52
2019-05-19T04:51:33.065Z,95591.64
2019-05-19T04:53:58.903Z,95590.52
2019-05-19T04:56:24.975Z,95593.47
2019-05-19T04:58:50.813Z,95591.20
2019-05-19T05:01:16.751Z,95590.70
2019-05-19T05:03:42.593Z,95592.89
2019-05-19T05:06:08.571Z,95598.86
2019-05-19T05:08:34.498Z,95598.10
2019-05-19T05:11:00.366Z,95592.75
2019-05-19T05:13:26.323Z,95587.63
2019-05-19T05:15:52.263Z,95592.09
2019-05-19T05:18:18.229Z,95587.55
2019-05-19T05:20:44.048Z,95587.48
2019-05-19T05:23:09.911Z,95591.48
2019-05-19T05:25:35.741Z,95593.48
2019-05-19T05:28:01.686Z,95588.66
2019-05-19T05:30:27.530Z,95590.11
2019-05-19T05:32:53.387Z,95596.08
2019-05-19T05:35:19.320Z,95593.81
2019-05-19T05:37:45.469Z,95586.11
2019-05-19T05:40:11.690Z,95591.12
2019-05-19T05:42:37.555Z,95597.80
2019-05-19T05:45:06.299Z,95591.75
2019-05-19T05:47:32.265Z,95588.40
2019-05-19T05:49:58.195Z,95591.02
2019-05-19T05:52:37.527Z,95592.68
2019-05-19T05:54:51.893Z,95586.16
2019-05-19T05:57:17.750Z,95588.37
2019-05-19T05:59:43.686Z,95582.70
2019-05-19T06:02:09.542Z,95578.28
2019-05-19T06:04:35.469Z,95575.14
2019-05-19T06:07:01.337Z,95579.45
2019-05-19T06:09:27.176Z,95578.73
2019-05-19T06:11:53.123Z,95581.39
2019-05-19T06:14:19.052Z,95584.73
2019-05-19T06:16:45.030Z,95584.45
2019-05-19T06:19:10.870Z,95587.17
2019-05-19T06:21:36.823Z,95589.65
2019-05-19T06:24:03.864Z,95585.44
2019-05-19T06:26:29.799Z,95584.50
2019-05-19T06:28:55.668Z,95585.45
2019-05-19T06:31:21.514Z,95587.56
2019-05-19T06:33:47.415Z,95591.38
2019-05-19T06:36:13.258Z,95589.44
2019-05-19T06:38:39.171Z,95591.14
2019-05-19T06:41:05.107Z,95585.55
2019-05-19T06:43:31.317Z,95586.89
2019-05-19T06:45:59.246Z,95589.86
2019-05-19T06:48:25.225Z,95582.48
2019-05-19T06:50:51.079Z,95589.78
2019-05-19T06:53:16.950Z,95586.55
2019-05-19T06:55:42.813Z,95590.06
2019-05-19T06:58:08.671Z,95586.83
2019-05-19T07:00:34.680Z,95595.58
2019-05-19T07:03:00.558Z,95594.25
2019-05-19T07:05:26.500Z,95601.35
2019-05-19T07:07:52.352Z,95603.32
2019-05-19T07:10:19.464Z,95603.13
2019-05-19T07:12:45.336Z,95597.87
2019-05-19T07:15:11.374Z,95599.03
2019-05-19T07:17:37.261Z,95590.66
2019-05-19T07:20:04.297Z,95592.19
2019-05-19T07:22:30.143Z,95600.30
2019-05-19T07:24:55.978Z,95592.77
2019-05-19T07:27:21.820Z,95590.53
2019-05-19T07:29:47.703Z,95581.94
2019-05-19T07:32:13.563Z,95591.02
2019-05-19T07:34:39.542Z,95591.02
2019-05-19T07:37:05.382Z,95589.54
2019-05-19T07:39:31.233Z,95589.11
2019-05-19T07:41:57.064Z,95585.11
2019-05-19T07:44:22.924Z,95580.16
2019-05-19T07:46:48.773Z,95570.58
2019-05-19T07:49:14.629Z,95578.07
2019-05-19T07:51:40.563Z,95576.88
2019-05-19T07:54:06.416Z,95577.17
2019-05-19T07:56:32.585Z,95576.86
2019-05-19T07:58:58.565Z,95573.37
2019-05-19T08:01:24.414Z,95575.25
2019-05-19T08:03:50.276Z,95574.45
2019-05-19T08:06:16.114Z,95573.27
2019-05-19T08:08:41.979Z,95579.12
2019-05-19T08:11:07.813Z,95574.97
2019-05-19T08:13:33.685Z,95570.11
2019-05-19T08:15:59.524Z,95574.07
2019-05-19T08:18:25.427Z,95572.00
2019-05-19T08:20:51.356Z,95563.23
2019-05-19T08:23:17.196Z,95568.24
2019-05-19T08:25:43.035Z,95564.87
2019-05-19T08:28:09.303Z,95569.97
2019-05-19T08:30:35.234Z,95559.95
2019-05-19T08:33:01.065Z,95563.38
2019-05-19T08:35:26.922Z,95560.83
2019-05-19T08:37:52.756Z,95558.30
2019-05-19T08:40:18.635Z,95562.17
2019-05-19T08:42:44.534Z,95558.68
2019-05-19T08:45:10.581Z,95554.73
2019-05-19T08:47:36.431Z,95555.25
2019-05-19T08:50:04.814Z,95552.88
2019-05-19T08:52:30.636Z,95556.34
2019-05-19T08:54:56.507Z,95551.88
2019-05-19T08:57:22.379Z,95554.31
2019-05-19T08:59:48.236Z,95550.83
2019-05-19T09:02:14.083Z,95547.98
2019-05-19T09:04:39.931Z,95548.70
2019-05-19T09:07:05.873Z,95546.27
2019-05-19T09:09:31.754Z,95545.50
2019-05-19T09:11:57.620Z,95543.57
2019-05-19T09:14:23.478Z,95546.23
2019-05-19T09:16:51.873Z,95545.39
2019-05-19T09:19:17.714Z,95543.27
2019-05-19T09:21:43.571Z,95540.75
2019-05-19T09:24:09.440Z,95540.88
2019-05-19T09:26:35.323Z,95544.85
2019-05-19T09:29:01.693Z,95538.09
2019-05-19T09:31:27.662Z,95543.80
2019-05-19T09:33:53.523Z,95545.46
2019-05-19T09:36:19.402Z,95538.02
2019-05-19T09:38:45.258Z,95535.22
2019-05-19T09:41:11.126Z,95530.25
2019-05-19T09:43:37.317Z,95530.09
2019-05-19T09:46:03.175Z,95530.42
2019-05-19T09:48:29.043Z,95519.67
2019-05-19T09:50:55.071Z,95525.47
2019-05-19T09:53:21.026Z,95530.72
2019-05-19T09:55:46.998Z,95524.70
2019-05-19T09:58:17.093Z,95521.94
2019-05-19T10:00:41.955Z,95516.34
2019-05-19T10:03:07.929Z,95510.57
2019-05-19T10:05:33.868Z,95518.81
2019-05-19T10:07:59.740Z,95514.70
2019-05-19T10:10:33.153Z,95505.35
2019-05-19T10:12:59.094Z,95506.97
2019-05-19T10:15:24.994Z,95505.73
2019-05-19T10:17:50.871Z,95508.62
2019-05-19T10:20:17.388Z,95503.66
2019-05-19T10:22:43.360Z,95505.09
2019-05-19T10:25:21.733Z,95503.83
2019-05-19T10:27:37.669Z,95499.46
2019-05-19T10:30:06.863Z,95498.13
2019-05-19T10:32:32.977Z,95499.86
2019-05-19T10:34:58.804Z,95496.25
2019-05-19T10:37:24.680Z,95495.27
2019-05-19T10:39:50.533Z,95484.97
2019-05-19T10:42:16.776Z,95489.82
2019-05-19T10:44:44.626Z,95495.23
2019-05-19T10:47:10.526Z,95487.06
2019-05-19T10:49:36.366Z,95492.48
2019-05-19T10:52:02.688Z,95485.78
2019-05-19T10:54:28.539Z,95491.91
2019-05-19T10:56:54.514Z,95492.85
2019-05-19T10:59:20.543Z,95493.95
2019-05-19T11:01:49.710Z,95485.54
2019-05-19T11:04:15.561Z,95486.86
2019-05-19T11:06:41.411Z,95487.83
2019-05-19T11:09:07.463Z,95485.34
2019-05-19T11:11:33.493Z,95488.47
2019-05-19T11:13:59.349Z,95484.23
2019-05-19T11:16:27.217Z,95487.52
2019-05-19T11:18:54.341Z,95492.19
2019-05-19T11:21:21.807Z,95490.73
2019-05-19T11:23:47.677Z,95481.86
2019-05-19T11:26:13.532Z,95486.80
2019-05-19T11:28:39.522Z,95485.11
2019-05-19T11:31:05.379Z,95488.38
2019-05-19T11:33:31.281Z,95481.22
2019-05-19T11:35:57.111Z,95481.34
2019-05-19T11:38:22.997Z,95478.52
2019-05-19T11:40:49.166Z,95483.98
2019-05-19T11:43:15.019Z,95474.75
2019-05-19T11:45:40.883Z,95477.63
2019-05-19T11:48:06.729Z,95478.02
2019-05-19T11:50:34.776Z,95481.11
2019-05-19T11:53:00.743Z,95471.70
2019-05-19T11:55:32.019Z,95468.70
2019-05-19T11:57:57.861Z,95469.25
2019-05-19T12:00:25.074Z,95469.06
2019-05-19T12:02:51.013Z,95467.27
2019-05-19T12:05:16.960Z,95469.21
2019-05-19T12:07:42.861Z,95473.64
2019-05-19T12:10:09.073Z,95479.58
2019-05-19T12:12:35.017Z,95473.43
2019-05-19T12:15:01.759Z,95479.77
2019-05-19T12:17:29.304Z,95478.56
2019-05-19T12:19:55.188Z,95482.12
2019-05-19T12:22:21.049Z,95486.70
2019-05-19T12:24:46.898Z,95475.89
2019-05-19T12:27:12.747Z,95483.11
2019-05-19T12:29:38.772Z,95478.55
2019-05-19T12:32:04.714Z,95475.78
2019-05-19T12:34:30.599Z,95476.27
2019-05-19T12:36:56.826Z,95471.67
2019-05-19T12:39:22.703Z,95465.77
2019-05-19T12:41:48.532Z,95474.00
2019-05-19T12:44:14.525Z,95471.12
2019-05-19T12:46:40.376Z,95471.61
2019-05-19T12:49:08.418Z,95474.56
2019-05-19T12:51:34.280Z,95470.58
2019-05-19T12:54:00.112Z,95478.50
2019-05-19T12:56:38.718Z,95468.28
2019-05-19T12:58:54.845Z,95469.59
2019-05-19T13:01:20.683Z,95456.36
2019-05-19T13:03:46.565Z,95461.95
2019-05-19T13:06:12.420Z,95459.73
2019-05-19T13:08:39.052Z,95453.83
2019-05-19T13:11:04.952Z,95454.03
2019-05-19T13:13:30.870Z,95454.61
2019-05-19T13:15:56.757Z,95458.50
2019-05-19T13:18:23.359Z,95447.61
2019-05-19T13:20:49.265Z,95451.43
2019-05-19T13:23:15.222Z,95446.08
2019-05-19T13:25:41.114Z,95447.83
2019-05-19T13:28:07.053Z,95448.04
2019-05-19T13:30:33.021Z,95444.19
2019-05-19T13:32:58.899Z,95444.94
2019-05-19T13:35:24.759Z,95439.78
2019-05-19T13:37:50.656Z,95434.04
2019-05-19T13:40:16.673Z,95430.60
2019-05-19T13:42:42.555Z,95432.25
2019-05-19T13:45:08.724Z,95426.39
2019-05-19T13:47:34.564Z,95421.04
2019-05-19T13:50:00.626Z,95417.22
2019-05-19T13:52:26.492Z,95415.78
2019-05-19T13:54:52.356Z,95412.98
2019-05-19T13:57:18.626Z,95411.44
2019-05-19T13:59:44.561Z,95413.02
2019-05-19T14:02:10.505Z,95417.99
2019-05-19T14:04:36.457Z,95409.66
2019-05-19T14:07:02.378Z,95407.22
2019-05-19T14:09:28.268Z,95407.85
2019-05-19T14:11:54.146Z,95404.92
2019-05-19T14:14:20.007Z,95407.17
2019-05-19T14:16:45.871Z,95399.55
2019-05-19T14:19:11.753Z,95396.78
2019-05-19T14:21:37.614Z,95392.82
2019-05-19T14:24:03.574Z,95395.25
2019-05-19T14:26:29.452Z,95385.75
2019-05-19T14:28:55.308Z,95384.26
2019-05-19T14:31:21.205Z,95386.64
2019-05-19T14:33:47.047Z,95380.91
2019-05-19T14:36:12.953Z,95374.59
2019-05-19T14:38:40.704Z,95370.09
2019-05-19T14:41:06.584Z,95379.72
2019-05-19T14:43:33.146Z,95382.75
2019-05-19T14:46:02.307Z,95379.60
2019-05-19T14:48:28.143Z,95372.64
2019-05-19T14:50:55.953Z,95375.83
2019-05-19T14:53:21.794Z,95364.96
2019-05-19T14:55:47.631Z,95368.43
2019-05-19T14:58:13.506Z,95356.97
2019-05-19T15:00:39.370Z,95364.36
2019-05-19T15:03:05.211Z,95367.52
2019-05-19T15:05:31.275Z,95375.50
2019-05-19T15:07:57.155Z,95379.69
2019-05-19T15:10:23.035Z,95366.84
2019-05-19T15:12:48.914Z,95359.78
2019-05-19T15:15:15.084Z,95357.02
2019-05-19T15:17:40.948Z,95360.00
2019-05-19T15:20:07.127Z,95358.62
2019-05-19T15:22:32.970Z,95357.64
2019-05-19T15:24:58.877Z,95363.89
2019-05-19T15:27:24.762Z,95368.12
2019-05-19T15:29:50.688Z,95367.52
2019-05-19T15:32:16.623Z,95357.64
2019-05-19T15:34:42.526Z,95352.67
2019-05-19T15:37:08.393Z,95345.70
2019-05-19T15:39:34.254Z,95347.59
2019-05-19T15:42:00.144Z,95345.73
2019-05-19T15:44:26.004Z,95344.85
2019-05-19T15:46:51.889Z,95343.55
2019-05-19T15:49:17.731Z,95344.05
2019-05-19T15:51:59.028Z,95336.16
2019-05-19T15:54:11.490Z,95339.27
2019-05-19T15:56:37.399Z,95333.52
2019-05-19T15:59:03.322Z,95339.07
2019-05-19T16:01:29.189Z,95331.86
2019-05-19T16:03:55.149Z,95334.84
2019-05-19T16:06:20.986Z,95331.99
2019-05-19T16:08:46.876Z,95324.16
2019-05-19T16:11:12.743Z,95324.16
2019-05-19T16:13:38.757Z,95326.27
2019-05-19T16:16:04.706Z,95327.54
2019-05-19T16:18:30.576Z,95321.50
2019-05-19T16:20:56.420Z,95320.72
2019-05-19T16:23:22.278Z,95323.25
2019-05-19T16:25:48.150Z,95316.52
2019-05-19T16:28:13.993Z,95316.19
2019-05-19T16:30:39.885Z,95310.55
2019-05-19T16:33:05.743Z,95318.75
2019-05-19T16:35:31.601Z,95320.02
2019-05-19T16:37:57.480Z,95311.53
2019-05-19T16:40:23.407Z,95311.47
2019-05-19T16:42:49.266Z,95312.06
2019-05-19T16:45:15.729Z,95314.48
2019-05-19T16:47:41.593Z,95313.50
2019-05-19T16:50:07.775Z,95314.91
2019-05-19T16:52:33.595Z,95325.33
2019-05-19T16:55:18.238Z,95325.90
2019-05-19T16:57:44.200Z,95327.35
2019-05-19T17:00:10.594Z,95336.41
2019-05-19T17:02:36.535Z,95328.81
2019-05-19T17:05:04.299Z,95326.52
2019-05-19T17:07:30.167Z,95329.13
2019-05-19T17:09:56.032Z,95324.90
2019-05-19T17:12:21.877Z,95326.57
2019-05-19T17:14:49.219Z,95332.94
2019-05-19T17:17:15.180Z,95329.92
2019-05-19T17:19:41.099Z,95328.74
2019-05-19T17:22:06.987Z,95337.27
2019-05-19T17:24:32.832Z,95338.70
2019-05-19T17:26:58.746Z,95342.75
2019-05-19T17:29:24.649Z,95339.39
2019-05-19T17:31:50.534Z,95351.95
2019-05-19T17:34:16.393Z,95346.80
2019-05-19T17:36:42.228Z,95343.50
2019-05-19T17:39:08.076Z,95352.43
2019-05-19T17:41:33.963Z,95353.78
2019-05-19T17:43:59.814Z,95352.61
2019-05-19T17:46:25.666Z,95349.77
2019-05-19T17:48:51.529Z,95355.64
2019-05-19T17:51:17.407Z,95348.75
2019-05-19T17:53:43.394Z,95361.19
2019-05-19T17:56:09.362Z,95364.53
2019-05-19T17:58:35.319Z,95362.73
2019-05-19T18:01:01.178Z,95367.09
2019-05-19T18:03:27.482Z,95360.01
2019-05-19T18:05:53.458Z,95366.05
2019-05-19T18:08:19.358Z,95375.66
2019-05-19T18:10:45.252Z,95371.95
2019-05-19T18:13:11.224Z,95379.14
2019-05-19T18:15:37.110Z,95377.95
2019-05-19T18:18:02.999Z,95383.95
2019-05-19T18:20:28.891Z,95379.73
2019-05-19T18:22:54.789Z,95388.50
2019-05-19T18:25:20.671Z,95384.08
2019-05-19T18:27:46.531Z,95386.04
2019-05-19T18:30:13.010Z,95382.64
2019-05-19T18:32:38.893Z,95382.86
2019-05-19T18:35:05.008Z,95389.41
2019-05-19T18:37:30.959Z,95390.88
2019-05-19T18:39:56.912Z,95396.78
2019-05-19T18:42:22.820Z,95391.70
2019-05-19T18:44:48.693Z,95390.16
2019-05-19T18:47:14.550Z,95393.12
2019-05-19T18:49:40.465Z,95389.91
2019-05-19T18:52:06.332Z,95396.61
2019-05-19T18:54:32.202Z,95386.41
2019-05-19T18:56:59.273Z,95390.02
2019-05-19T18:59:25.158Z,95384.44
2019-05-19T19:01:51.033Z,95389.00
2019-05-19T19:04:16.950Z,95386.66
2019-05-19T19:06:42.809Z,95387.80
2019-05-19T19:09:09.110Z,95391.26
2019-05-19T19:11:35.093Z,95400.44
2019-05-19T19:14:01.072Z,95399.67
2019-05-19T19:16:27.338Z,95398.52
2019-05-19T19:18:53.227Z,95396.25
2019-05-19T19:21:19.133Z,95410.27
2019-05-19T19:23:44.998Z,95414.62
2019-05-19T19:26:12.944Z,95412.30
2019-05-19T19:28:38.832Z,95413.93
2019-05-19T19:31:04.705Z,95401.12
2019-05-19T19:33:30.580Z,95406.02
2019-05-19T19:35:56.462Z,95401.64
2019-05-19T19:38:22.385Z,95404.61
2019-05-19T19:40:48.241Z,95400.14
2019-05-19T19:43:14.914Z,95397.49
2019-05-19T19:45:40.762Z,95406.34
2019-05-19T19:48:06.643Z,95404.55
2019-05-19T19:50:33.245Z,95403.55
2019-05-19T19:52:59.150Z,95404.37
2019-05-19T19:55:25.233Z,95413.41
2019-05-19T19:57:51.101Z,95412.53
2019-05-19T20:00:35.377Z,95411.05
2019-05-19T20:03:01.373Z,95414.17
2019-05-19T20:05:27.232Z,95409.89
2019-05-19T20:07:53.221Z,95410.45
2019-05-19T20:10:19.098Z,95410.14
2019-05-19T20:12:44.985Z,95413.98
2019-05-19T20:15:14.112Z,95414.17
2019-05-19T20:17:39.949Z,95418.63
2019-05-19T20:20:05.917Z,95415.48
2019-05-19T20:22:31.758Z,95417.78
2019-05-19T20:24:57.610Z,95414.85
2019-05-19T20:27:23.463Z,95424.86
2019-05-19T20:29:49.307Z,95426.00
2019-05-19T20:32:15.146Z,95432.41
2019-05-19T20:34:41.029Z,95430.41
2019-05-19T20:37:06.870Z,95432.67
2019-05-19T20:39:32.729Z,95433.25
2019-05-19T20:41:58.622Z,95434.13
2019-05-19T20:44:24.617Z,95433.47
2019-05-19T20:46:50.444Z,95433.66
2019-05-19T20:49:16.278Z,95438.30
2019-05-19T20:51:42.163Z,95433.00
2019-05-19T20:54:08.013Z,95433.29
2019-05-19T20:56:33.867Z,95432.27
2019-05-19T20:58:59.729Z,95427.28
2019-05-19T21:01:25.625Z,95425.00
2019-05-19T21:03:51.432Z,95419.85
2019-05-19T21:06:17.306Z,95419.64
2019-05-19T21:08:43.158Z,95421.52
2019-05-19T21:11:08.984Z,95417.55
2019-05-19T21:13:34.835Z,95423.58
2019-05-19T21:16:00.650Z,95422.75
2019-05-19T21:18:26.491Z,95375.56
2019-05-19T21:20:52.341Z,95418.41
2019-05-19T21:23:18.202Z,95416.88
2019-05-19T21:25:44.048Z,95417.07
2019-05-19T21:28:09.915Z,95415.16
2019-05-19T21:30:35.738Z,95423.33
2019-05-19T21:33:01.731Z,95422.03
2019-05-19T21:35:27.590Z,95420.67
2019-05-19T21:37:53.456Z,95419.92
2019-05-19T21:40:19.384Z,95416.32
2019-05-19T21:42:45.250Z,95414.80
2019-05-19T21:45:11.296Z,95420.87
2019-05-19T21:47:37.157Z,95419.91
2019-05-19T21:50:05.738Z,95421.61
2019-05-19T21:52:31.638Z,95422.55
2019-05-19T21:54:57.497Z,95423.31
2019-05-19T21:57:23.340Z,95413.80
2019-05-19T21:59:49.200Z,95414.35
2019-05-19T22:02:15.142Z,95421.55
2019-05-19T22:04:41.012Z,95428.97
2019-05-19T22:07:08.774Z,95425.69
2019-05-19T22:09:34.677Z,95422.27
2019-05-19T22:12:00.518Z,95420.56
2019-05-19T22:14:26.372Z,95421.09
2019-05-19T22:16:52.235Z,95417.09
2019-05-19T22:19:18.071Z,95422.65
2019-05-19T22:21:43.924Z,95424.12
2019-05-19T22:24:09.784Z,95424.93
2019-05-19T22:26:35.658Z,95421.99
2019-05-19T22:29:01.810Z,95418.90
2019-05-19T22:31:36.631Z,95417.61
2019-05-19T22:33:55.433Z,95417.09
2019-05-19T22:36:21.295Z,95416.31
2019-05-19T22:38:47.251Z,95415.93
2019-05-19T22:41:13.113Z,95408.66
2019-05-19T22:43:38.960Z,95410.69
2019-05-19T22:46:04.825Z,95410.67
2019-05-19T22:48:30.692Z,95414.86
2019-05-19T22:50:56.553Z,95411.37
2019-05-19T22:53:22.631Z,95408.34
2019-05-19T22:55:48.500Z,95409.91
2019-05-19T22:58:14.363Z,95406.92
2019-05-19T23:00:40.220Z,95406.77
2019-05-19T23:03:06.073Z,95407.55
2019-05-19T23:05:31.915Z,95415.78
2019-05-19T23:07:57.784Z,95413.34
2019-05-19T23:10:23.615Z,95414.94
2019-05-19T23:12:49.451Z,95424.91
2019-05-19T23:15:16.317Z,95425.49
2019-05-19T23:17:42.349Z,95420.19
2019-05-19T23:20:08.934Z,95423.27
2019-05-19T23:22:34.787Z,95426.29
2019-05-19T23:25:00.666Z,95430.16
2019-05-19T23:27:26.530Z,95426.02
2019-05-19T23:29:52.390Z,95426.55
2019-05-19T23:32:18.339Z,95421.16
2019-05-19T23:34:44.193Z,95428.05
2019-05-19T23:37:10.062Z,95429.26
2019-05-19T23:39:35.932Z,95428.42
2019-05-19T23:42:01.788Z,95430.97
2019-05-19T23:44:27.684Z,95433.20
2019-05-19T23:46:53.538Z,95430.41
2019-05-19T23:49:19.380Z,95386.50
2019-05-19T23:51:45.219Z,95429.73
2019-05-19T23:54:11.070Z,95431.52
2019-05-19T23:56:36.978Z,95424.41
2019-05-19T23:59:02.955Z,95426.03
